Flight Track Log - Related Links

Times and Time Zones

All times are in EDT time to prevent confusion due to time zone crossing. See the N465TP flight status page for this flight to view local times or setup timezone preferences in your user account.

Time Position Orientation Groundspeed Altitude Reporting Facility
EDT Latitude Longitude Course Direction KTS MPH feet Rate Location/Type
Fri 06:36:04 PM 44.5653 -108.7225 78° East 157 181 12,300  Level Salt Lake Center
Fri 06:37:07 PM 44.5722 -108.6606 81° East 159 183 13,200 1,065 Climbing Salt Lake Center
Fri 06:38:08 PM 44.5800 -108.5939 81° East 166 191 14,500 1,122 Climbing Salt Lake Center
Fri 06:39:10 PM 44.6033 -108.5353 61° Northeast 170 196 15,500 1,016 Climbing Salt Lake Center
Fri 06:40:12 PM 44.6269 -108.4761 61° Northeast 173 199 16,600 1,161 Climbing Salt Lake Center
Fri 06:41:00 PM 44.5566 -108.5903 78° East  Level FlightAware Approximate
Fri 06:41:14 PM 44.6556 -108.4003 62° Northeast 180 207 17,900  Level Salt Lake Center
Fri 06:42:16 PM 44.6819 -108.3372 60° Northeast 187 215 19,000 968 Climbing Salt Lake Center
Fri 06:43:18 PM 44.7061 -108.2747 61° Northeast 184 212 19,900 829 Climbing Salt Lake Center
Fri 06:44:19 PM 44.7097 -108.2000 86° East 190 219 20,700 537 Climbing Salt Lake Center
Fri 06:45:21 PM 44.7158 -108.1183 84° East 207 238 21,000 145 Climbing Salt Lake Center
Fri 06:46:23 PM 44.7222 -108.0267 84° East 230 265 21,000  Level Salt Lake Center
Fri 06:47:25 PM 44.7328 -107.9086 83° East 253 291 21,000  Level Salt Lake Center
Fri 06:48:27 PM 44.7419 -107.8078 83° East 265 305 21,000 -48 Level Salt Lake Center
Fri 06:49:29 PM 44.7508 -107.7067 83° East 264 304 20,900  Descending Salt Lake Center
Fri 06:50:30 PM 44.7594 -107.6036 83° East 266 306 21,000 49 Climbing Salt Lake Center
Fri 06:51:32 PM 44.7683 -107.4808 84° East 265 305 21,000  Level Salt Lake Center
Fri 06:52:34 PM 44.7747 -107.3786 85° East 265 305 21,000  Level Salt Lake Center
Fri 06:53:36 PM 44.7847 -107.2747 82° East 267 307 21,000  Level Salt Lake Center
Fri 06:54:38 PM 44.7953 -107.1681 82° East 274 315 21,000  Level Salt Lake Center
Fri 06:55:39 PM 44.8036 -107.0658 83° East 268 308 21,000  Level Salt Lake Center
Fri 06:56:41 PM 44.8125 -106.9689 83° East 256 295 21,000  Level Salt Lake Center
Fri 06:57:43 PM 44.8194 -106.8714 84° East 252 290 21,000  Level Salt Lake Center
Fri 06:58:45 PM 44.8289 -106.7536 84° East 254 292 21,000  Level Salt Lake Center
Fri 06:59:47 PM 44.8353 -106.6542 85° East 255 293 21,000  Level Salt Lake Center
Fri 07:00:49 PM 44.8406 -106.5553 86° East 254 292 21,000  Level Salt Lake Center
Fri 07:01:50 PM 44.8481 -106.4553 84° East 256 295 21,000  Level Salt Lake Center
Fri 07:02:52 PM 44.8586 -106.3542 82° East 259 298 21,000 -290 Level Salt Lake Center
Fri 07:03:54 PM 44.8656 -106.2558 84° East 257 296 20,400 -1,065 Descending Salt Lake Center
Fri 07:04:56 PM 44.8731 -106.1433 85° East 245 282 18,800 -1,561 Descending Salt Lake Center
Fri 07:05:57 PM 44.8794 -106.0503 84° East 241 277 17,200 -1,366 Descending Salt Lake Center
Fri 07:06:59 PM 44.8836 -105.9575 86° East 240 276 16,000 -1,210 Descending Salt Lake Center
Fri 07:08:01 PM 44.8881 -105.8667 86° East 237 273 14,700 -1,258 Descending Salt Lake Center
Fri 07:09:03 PM 44.8942 -105.7769 84° East 233 268 13,400 -1,415 Descending Salt Lake Center
Fri 07:10:04 PM 44.9006 -105.6922 84° East 227 261 11,800 -1,463 Descending Salt Lake Center
Fri 07:11:06 PM 44.9067 -105.6047 84° East 225 259 10,400 -919 Descending Salt Lake Center
Fri 07:12:08 PM 44.9128 -105.5033 85° East 221 254 9,900 -484 Descending Salt Lake Center
Fri 07:13:10 PM 44.9175 -105.4203 85° East 217 250 9,400 -439 Descending Salt Lake Center
Fri 07:14:11 PM 44.9225 -105.3361 85° East 216 249 9,000 -393 Descending Salt Lake Center

Login

Don't have an account? Register now (free) for customized features, flight alerts, and more!